Pringle, SD (57773)

4:46 PM MST on January 30, 2015 (GMT -0700)
RAWS SDS PORTABLE 1 SD US | Change Station
CLOSE
Current Station
Personal Weather Station
Location: Pringle, SD
Elevation: 5029 ft
Nearby Weather Stations

Elev 5029 ft 43.66 °N, 103.49 °W | Updated 33 minutes ago

Partly Cloudy
Partly Cloudy
42 °F
Feels Like 42 °F
N
3
Wind Variable Wind from ESE
Gusts 8.0 mph

Today
High -- | Low -- °F
--% Chance of Precip.
Yesterday
High -- | Low -- °F
Precip. -- in
7:13 AM 5:02 PM
Waxing Gibbous, 86% visible
Pressure 30.15 in
Visibility 10.0 miles
Clouds Clear
Windchill 42 °F
Dew Point 20 °F
Humidity 41%
Rainfall 0.00 in
Snow Depth Not available.
UV 1 out of 12
Pollen .10 out of 12
Air Quality Not available.
Flu Activity Not available.
METAR KCUT 302253Z AUTO 10005KT 10SM CLR 06/M07 A3011 RMK AO2 SLP208 T00561072 PWINO

More Conditions Fewer Conditions

Pressure 30.15 in
Visibility 10.0 miles
Clouds Clear
Windchill 42 °F
Dew Point 20 °F
Humidity 41%
Rainfall 0.00 in
Snow Depth Not available.
UV 1 out of 12
Pollen .10 out of 12
Air Quality Not available.
Flu Activity Not available.
METAR KCUT 302253Z AUTO 10005KT 10SM CLR 06/M07 A3011 RMK AO2 SLP208 T00561072 PWINO

More Conditions Fewer Conditions

10-Day Weather Forecast

Almanac

Astronomy

Jan. 30, 2015 Rise Set
Actual Time
Civil Twilight
Nautical Twilight
Astronomical Twilight
Moon
Length of Visible Light
Length of Day
Tomorrow will be .
, % of the Moon is Illuminated

Today's Extremes

State Highs State Lows

Community

WunderPhotos

Upload Photos

1,791,934 photos uploaded!

WunderBlogs® & News

Nearby

Air Quality

  Air Quality AQ Index Pollutant
Not available.

Snow Depth

Station Depth Elevation

Earthquake Activity

City Distance Mag. Time & Date
Minimum magnitude displayed is 2.5.

Coastal Water Temperatures

Place Temperature

Nearby Weather Stations